sensor_id;sensor_type;location;lat;lon;timestamp;P1;durP1;ratioP1;P2;durP2;ratioP2
9481;SDS011;4779;48.062;11.672;2023-07-16T00:02:04;4.50;;;4.10;;
9481;SDS011;4779;48.062;11.672;2023-07-16T00:04:33;5.20;;;3.83;;
9481;SDS011;4779;48.062;11.672;2023-07-16T00:07:00;5.38;;;3.72;;
9481;SDS011;4779;48.062;11.672;2023-07-16T00:09:27;5.60;;;3.65;;
9481;SDS011;4779;48.062;11.672;2023-07-16T00:11:54;6.45;;;3.97;;
9481;SDS011;4779;48.062;11.672;2023-07-16T00:14:20;4.22;;;3.83;;
9481;SDS011;4779;48.062;11.672;2023-07-16T00:16:47;5.72;;;4.55;;
9481;SDS011;4779;48.062;11.672;2023-07-16T00:19:14;6.25;;;4.20;;
9481;SDS011;4779;48.062;11.672;2023-07-16T00:21:43;5.32;;;4.53;;
9481;SDS011;4779;48.062;11.672;2023-07-16T00:24:10;5.72;;;3.97;;
9481;SDS011;4779;48.062;11.672;2023-07-16T00:26:36;4.95;;;4.07;;
9481;SDS011;4779;48.062;11.672;2023-07-16T00:29:03;4.97;;;4.00;;
9481;SDS011;4779;48.062;11.672;2023-07-16T00:31:30;4.95;;;3.65;;
9481;SDS011;4779;48.062;11.672;2023-07-16T00:33:57;4.18;;;3.78;;
9481;SDS011;4779;48.062;11.672;2023-07-16T00:36:24;4.30;;;3.90;;
9481;SDS011;4779;48.062;11.672;2023-07-16T00:38:52;5.50;;;4.35;;
9481;SDS011;4779;48.062;11.672;2023-07-16T00:41:20;4.90;;;3.63;;
9481;SDS011;4779;48.062;11.672;2023-07-16T00:43:47;5.38;;;3.90;;
9481;SDS011;4779;48.062;11.672;2023-07-16T00:46:14;4.30;;;3.90;;
9481;SDS011;4779;48.062;11.672;2023-07-16T00:48:42;4.50;;;3.92;;
9481;SDS011;4779;48.062;11.672;2023-07-16T00:51:09;4.18;;;3.70;;
9481;SDS011;4779;48.062;11.672;2023-07-16T00:53:36;5.28;;;4.00;;
9481;SDS011;4779;48.062;11.672;2023-07-16T00:56:05;4.00;;;3.70;;
9481;SDS011;4779;48.062;11.672;2023-07-16T00:58:34;4.72;;;4.07;;
9481;SDS011;4779;48.062;11.672;2023-07-16T01:01:01;4.22;;;3.67;;
9481;SDS011;4779;48.062;11.672;2023-07-16T01:03:27;4.05;;;3.75;;
9481;SDS011;4779;48.062;11.672;2023-07-16T01:05:55;4.65;;;4.13;;
9481;SDS011;4779;48.062;11.672;2023-07-16T01:08:29;5.10;;;4.15;;
9481;SDS011;4779;48.062;11.672;2023-07-16T01:10:59;5.03;;;4.50;;
9481;SDS011;4779;48.062;11.672;2023-07-16T01:13:28;7.85;;;4.55;;
9481;SDS011;4779;48.062;11.672;2023-07-16T01:15:56;5.00;;;4.00;;
9481;SDS011;4779;48.062;11.672;2023-07-16T01:18:22;5.20;;;4.25;;
9481;SDS011;4779;48.062;11.672;2023-07-16T01:20:49;4.85;;;4.28;;
9481;SDS011;4779;48.062;11.672;2023-07-16T01:26:06;6.72;;;4.80;;
9481;SDS011;4779;48.062;11.672;2023-07-16T01:28:53;4.38;;;4.00;;
9481;SDS011;4779;48.062;11.672;2023-07-16T01:31:33;5.97;;;4.70;;
9481;SDS011;4779;48.062;11.672;2023-07-16T01:34:01;5.88;;;4.53;;
9481;SDS011;4779;48.062;11.672;2023-07-16T01:36:31;5.10;;;4.60;;
9481;SDS011;4779;48.062;11.672;2023-07-16T01:38:59;6.38;;;4.60;;
9481;SDS011;4779;48.062;11.672;2023-07-16T01:41:26;5.72;;;4.60;;
9481;SDS011;4779;48.062;11.672;2023-07-16T01:43:53;5.53;;;5.03;;
9481;SDS011;4779;48.062;11.672;2023-07-16T01:46:21;4.78;;;4.25;;
9481;SDS011;4779;48.062;11.672;2023-07-16T01:48:48;4.63;;;4.22;;
9481;SDS011;4779;48.062;11.672;2023-07-16T01:51:15;7.47;;;5.13;;
9481;SDS011;4779;48.062;11.672;2023-07-16T01:53:42;5.43;;;4.38;;
9481;SDS011;4779;48.062;11.672;2023-07-16T01:56:09;6.38;;;4.88;;
9481;SDS011;4779;48.062;11.672;2023-07-16T01:58:36;6.32;;;4.72;;
9481;SDS011;4779;48.062;11.672;2023-07-16T02:01:03;6.07;;;4.88;;
9481;SDS011;4779;48.062;11.672;2023-07-16T02:03:31;5.10;;;4.60;;
9481;SDS011;4779;48.062;11.672;2023-07-16T02:05:58;6.22;;;4.85;;
9481;SDS011;4779;48.062;11.672;2023-07-16T02:08:25;4.43;;;4.03;;
9481;SDS011;4779;48.062;11.672;2023-07-16T02:10:51;4.93;;;4.43;;
9481;SDS011;4779;48.062;11.672;2023-07-16T02:13:18;5.15;;;4.65;;
9481;SDS011;4779;48.062;11.672;2023-07-16T02:15:45;5.15;;;4.65;;
9481;SDS011;4779;48.062;11.672;2023-07-16T02:18:12;5.40;;;4.88;;
9481;SDS011;4779;48.062;11.672;2023-07-16T02:20:41;4.70;;;4.30;;
9481;SDS011;4779;48.062;11.672;2023-07-16T02:23:09;5.47;;;4.38;;
9481;SDS011;4779;48.062;11.672;2023-07-16T02:25:36;4.72;;;4.22;;
9481;SDS011;4779;48.062;11.672;2023-07-16T02:28:03;6.88;;;4.75;;
9481;SDS011;4779;48.062;11.672;2023-07-16T02:30:30;5.68;;;4.55;;
9481;SDS011;4779;48.062;11.672;2023-07-16T02:32:57;5.40;;;4.90;;
9481;SDS011;4779;48.062;11.672;2023-07-16T02:35:24;5.18;;;4.55;;
9481;SDS011;4779;48.062;11.672;2023-07-16T02:37:52;5.07;;;4.38;;
9481;SDS011;4779;48.062;11.672;2023-07-16T02:40:20;5.32;;;4.82;;
9481;SDS011;4779;48.062;11.672;2023-07-16T02:42:46;5.53;;;4.97;;
9481;SDS011;4779;48.062;11.672;2023-07-16T02:45:13;5.00;;;4.50;;
9481;SDS011;4779;48.062;11.672;2023-07-16T02:47:40;5.20;;;4.70;;
9481;SDS011;4779;48.062;11.672;2023-07-16T02:50:07;5.38;;;4.88;;
9481;SDS011;4779;48.062;11.672;2023-07-16T02:52:35;5.00;;;4.50;;
9481;SDS011;4779;48.062;11.672;2023-07-16T02:55:03;5.63;;;4.32;;
9481;SDS011;4779;48.062;11.672;2023-07-16T02:57:31;5.88;;;5.05;;
9481;SDS011;4779;48.062;11.672;2023-07-16T02:59:58;4.82;;;4.30;;
9481;SDS011;4779;48.062;11.672;2023-07-16T03:02:24;5.30;;;4.78;;
9481;SDS011;4779;48.062;11.672;2023-07-16T03:04:51;5.55;;;4.70;;
9481;SDS011;4779;48.062;11.672;2023-07-16T03:07:19;5.57;;;4.88;;
9481;SDS011;4779;48.062;11.672;2023-07-16T03:09:46;6.00;;;4.68;;
9481;SDS011;4779;48.062;11.672;2023-07-16T03:12:14;5.28;;;4.78;;
9481;SDS011;4779;48.062;11.672;2023-07-16T03:14:41;7.47;;;4.65;;
9481;SDS011;4779;48.062;11.672;2023-07-16T03:17:08;6.18;;;4.28;;
9481;SDS011;4779;48.062;11.672;2023-07-16T03:19:35;4.95;;;4.22;;
9481;SDS011;4779;48.062;11.672;2023-07-16T03:22:01;4.40;;;4.00;;
9481;SDS011;4779;48.062;11.672;2023-07-16T03:24:29;4.70;;;4.30;;
9481;SDS011;4779;48.062;11.672;2023-07-16T03:26:56;4.32;;;3.92;;
9481;SDS011;4779;48.062;11.672;2023-07-16T03:29:24;4.32;;;4.00;;
9481;SDS011;4779;48.062;11.672;2023-07-16T03:31:51;4.30;;;3.90;;
9481;SDS011;4779;48.062;11.672;2023-07-16T03:34:18;4.78;;;4.20;;
9481;SDS011;4779;48.062;11.672;2023-07-16T03:36:44;6.43;;;4.05;;
9481;SDS011;4779;48.062;11.672;2023-07-16T03:39:11;5.70;;;4.45;;
9481;SDS011;4779;48.062;11.672;2023-07-16T03:41:38;4.25;;;3.95;;
9481;SDS011;4779;48.062;11.672;2023-07-16T03:44:05;4.15;;;3.75;;
9481;SDS011;4779;48.062;11.672;2023-07-16T03:46:33;7.45;;;4.80;;
9481;SDS011;4779;48.062;11.672;2023-07-16T03:49:00;4.68;;;3.75;;
9481;SDS011;4779;48.062;11.672;2023-07-16T03:51:27;5.63;;;3.83;;
9481;SDS011;4779;48.062;11.672;2023-07-16T03:53:54;4.43;;;4.03;;
9481;SDS011;4779;48.062;11.672;2023-07-16T03:56:21;3.88;;;3.58;;
9481;SDS011;4779;48.062;11.672;2023-07-16T03:58:48;3.42;;;3.10;;
9481;SDS011;4779;48.062;11.672;2023-07-16T04:01:14;3.65;;;3.28;;
9481;SDS011;4779;48.062;11.672;2023-07-16T04:03:43;3.25;;;2.85;;
9481;SDS011;4779;48.062;11.672;2023-07-16T04:06:10;2.90;;;2.70;;
9481;SDS011;4779;48.062;11.672;2023-07-16T04:08:38;4.22;;;2.75;;
9481;SDS011;4779;48.062;11.672;2023-07-16T04:11:05;2.80;;;2.60;;
9481;SDS011;4779;48.062;11.672;2023-07-16T04:13:33;2.55;;;2.35;;
9481;SDS011;4779;48.062;11.672;2023-07-16T04:16:00;3.20;;;2.47;;
9481;SDS011;4779;48.062;11.672;2023-07-16T04:18:27;3.40;;;2.95;;
9481;SDS011;4779;48.062;11.672;2023-07-16T04:20:55;3.20;;;2.90;;
9481;SDS011;4779;48.062;11.672;2023-07-16T04:23:22;2.75;;;2.55;;
9481;SDS011;4779;48.062;11.672;2023-07-16T04:25:51;3.03;;;2.75;;
9481;SDS011;4779;48.062;11.672;2023-07-16T04:28:19;3.88;;;2.85;;
9481;SDS011;4779;48.062;11.672;2023-07-16T04:30:46;3.42;;;3.13;;
9481;SDS011;4779;48.062;11.672;2023-07-16T04:33:13;3.15;;;2.55;;
9481;SDS011;4779;48.062;11.672;2023-07-16T04:35:40;3.28;;;3.00;;
9481;SDS011;4779;48.062;11.672;2023-07-16T04:38:08;3.20;;;2.90;;
9481;SDS011;4779;48.062;11.672;2023-07-16T04:40:35;3.22;;;2.92;;
9481;SDS011;4779;48.062;11.672;2023-07-16T04:43:02;3.03;;;2.67;;
9481;SDS011;4779;48.062;11.672;2023-07-16T04:45:28;4.35;;;2.70;;
9481;SDS011;4779;48.062;11.672;2023-07-16T04:47:55;3.10;;;2.80;;
9481;SDS011;4779;48.062;11.672;2023-07-16T04:50:24;2.78;;;2.45;;
9481;SDS011;4779;48.062;11.672;2023-07-16T04:52:51;2.40;;;2.03;;
9481;SDS011;4779;48.062;11.672;2023-07-16T04:55:19;3.28;;;2.17;;
9481;SDS011;4779;48.062;11.672;2023-07-16T04:57:46;3.05;;;2.20;;
9481;SDS011;4779;48.062;11.672;2023-07-16T05:00:13;2.55;;;2.35;;
9481;SDS011;4779;48.062;11.672;2023-07-16T05:02:40;4.00;;;2.45;;
9481;SDS011;4779;48.062;11.672;2023-07-16T05:05:07;2.15;;;1.95;;
9481;SDS011;4779;48.062;11.672;2023-07-16T05:07:34;2.75;;;2.50;;
9481;SDS011;4779;48.062;11.672;2023-07-16T05:10:01;3.10;;;2.20;;
9481;SDS011;4779;48.062;11.672;2023-07-16T05:12:29;2.17;;;2.08;;
9481;SDS011;4779;48.062;11.672;2023-07-16T05:14:56;2.08;;;1.88;;
9481;SDS011;4779;48.062;11.672;2023-07-16T05:17:23;2.60;;;1.80;;
9481;SDS011;4779;48.062;11.672;2023-07-16T05:19:50;2.72;;;2.20;;
9481;SDS011;4779;48.062;11.672;2023-07-16T05:22:17;2.78;;;2.25;;
9481;SDS011;4779;48.062;11.672;2023-07-16T05:24:43;2.50;;;2.30;;
9481;SDS011;4779;48.062;11.672;2023-07-16T05:27:10;2.33;;;2.10;;
9481;SDS011;4779;48.062;11.672;2023-07-16T05:29:39;2.03;;;1.75;;
9481;SDS011;4779;48.062;11.672;2023-07-16T05:32:06;2.22;;;2.03;;
9481;SDS011;4779;48.062;11.672;2023-07-16T05:34:33;2.33;;;2.10;;
9481;SDS011;4779;48.062;11.672;2023-07-16T05:37:00;2.45;;;2.00;;
9481;SDS011;4779;48.062;11.672;2023-07-16T05:39:27;2.10;;;1.90;;
9481;SDS011;4779;48.062;11.672;2023-07-16T05:41:56;2.60;;;2.20;;
9481;SDS011;4779;48.062;11.672;2023-07-16T05:44:23;1.95;;;1.73;;
9481;SDS011;4779;48.062;11.672;2023-07-16T05:47:05;1.65;;;1.52;;
9481;SDS011;4779;48.062;11.672;2023-07-16T05:49:33;2.17;;;1.80;;
9481;SDS011;4779;48.062;11.672;2023-07-16T05:52:00;1.77;;;1.67;;
9481;SDS011;4779;48.062;11.672;2023-07-16T05:54:26;2.40;;;2.20;;
9481;SDS011;4779;48.062;11.672;2023-07-16T05:56:53;2.28;;;2.08;;
9481;SDS011;4779;48.062;11.672;2023-07-16T05:59:20;2.42;;;2.22;;
9481;SDS011;4779;48.062;11.672;2023-07-16T06:01:47;2.22;;;2.03;;
9481;SDS011;4779;48.062;11.672;2023-07-16T06:04:15;2.78;;;2.17;;
9481;SDS011;4779;48.062;11.672;2023-07-16T06:06:42;2.58;;;2.20;;
9481;SDS011;4779;48.062;11.672;2023-07-16T06:09:09;2.60;;;2.33;;
9481;SDS011;4779;48.062;11.672;2023-07-16T06:11:36;2.97;;;2.50;;
9481;SDS011;4779;48.062;11.672;2023-07-16T06:14:03;3.80;;;2.67;;
9481;SDS011;4779;48.062;11.672;2023-07-16T06:16:30;2.80;;;2.05;;
9481;SDS011;4779;48.062;11.672;2023-07-16T06:18:57;3.13;;;2.20;;
9481;SDS011;4779;48.062;11.672;2023-07-16T06:21:25;2.50;;;2.20;;
9481;SDS011;4779;48.062;11.672;2023-07-16T06:23:52;2.50;;;2.28;;
9481;SDS011;4779;48.062;11.672;2023-07-16T06:26:18;4.03;;;2.10;;
9481;SDS011;4779;48.062;11.672;2023-07-16T06:28:45;2.35;;;2.00;;
9481;SDS011;4779;48.062;11.672;2023-07-16T06:31:14;2.80;;;2.22;;
9481;SDS011;4779;48.062;11.672;2023-07-16T06:33:41;3.22;;;2.15;;
9481;SDS011;4779;48.062;11.672;2023-07-16T06:36:08;4.40;;;2.28;;
9481;SDS011;4779;48.062;11.672;2023-07-16T06:38:36;2.08;;;1.98;;
9481;SDS011;4779;48.062;11.672;2023-07-16T06:41:03;2.78;;;1.95;;
9481;SDS011;4779;48.062;11.672;2023-07-16T06:43:30;2.65;;;2.13;;
9481;SDS011;4779;48.062;11.672;2023-07-16T06:45:56;4.50;;;2.38;;
9481;SDS011;4779;48.062;11.672;2023-07-16T06:48:23;2.22;;;2.03;;
9481;SDS011;4779;48.062;11.672;2023-07-16T06:50:50;2.67;;;2.47;;
9481;SDS011;4779;48.062;11.672;2023-07-16T06:53:17;3.47;;;2.10;;
9481;SDS011;4779;48.062;11.672;2023-07-16T06:55:46;3.15;;;2.35;;
9481;SDS011;4779;48.062;11.672;2023-07-16T06:58:14;2.75;;;2.05;;
9481;SDS011;4779;48.062;11.672;2023-07-16T07:00:41;2.60;;;2.40;;
9481;SDS011;4779;48.062;11.672;2023-07-16T07:03:08;3.10;;;2.33;;
9481;SDS011;4779;48.062;11.672;2023-07-16T07:05:34;3.63;;;2.20;;
9481;SDS011;4779;48.062;11.672;2023-07-16T07:08:02;2.95;;;2.10;;
9481;SDS011;4779;48.062;11.672;2023-07-16T07:10:29;2.83;;;2.25;;
9481;SDS011;4779;48.062;11.672;2023-07-16T07:12:59;3.08;;;2.42;;
9481;SDS011;4779;48.062;11.672;2023-07-16T07:15:26;2.38;;;2.17;;
9481;SDS011;4779;48.062;11.672;2023-07-16T07:17:52;3.35;;;2.33;;
9481;SDS011;4779;48.062;11.672;2023-07-16T07:20:19;2.35;;;2.15;;
9481;SDS011;4779;48.062;11.672;2023-07-16T07:22:46;2.88;;;1.98;;
9481;SDS011;4779;48.062;11.672;2023-07-16T07:25:14;2.22;;;2.03;;
9481;SDS011;4779;48.062;11.672;2023-07-16T07:27:40;2.25;;;2.15;;
9481;SDS011;4779;48.062;11.672;2023-07-16T07:30:09;2.28;;;2.08;;
9481;SDS011;4779;48.062;11.672;2023-07-16T07:32:37;2.25;;;2.08;;
9481;SDS011;4779;48.062;11.672;2023-07-16T07:35:04;2.10;;;1.90;;
9481;SDS011;4779;48.062;11.672;2023-07-16T07:37:32;2.42;;;1.90;;
9481;SDS011;4779;48.062;11.672;2023-07-16T07:39:58;2.20;;;2.00;;
9481;SDS011;4779;48.062;11.672;2023-07-16T07:42:25;3.83;;;2.00;;
9481;SDS011;4779;48.062;11.672;2023-07-16T07:44:53;2.15;;;1.92;;
9481;SDS011;4779;48.062;11.672;2023-07-16T07:47:21;1.83;;;1.73;;
9481;SDS011;4779;48.062;11.672;2023-07-16T07:49:48;2.05;;;1.88;;
9481;SDS011;4779;48.062;11.672;2023-07-16T07:52:15;1.63;;;1.52;;
9481;SDS011;4779;48.062;11.672;2023-07-16T07:54:42;1.90;;;1.80;;
9481;SDS011;4779;48.062;11.672;2023-07-16T07:57:09;2.08;;;1.88;;
9481;SDS011;4779;48.062;11.672;2023-07-16T07:59:36;1.90;;;1.67;;
9481;SDS011;4779;48.062;11.672;2023-07-16T08:02:03;2.08;;;1.58;;
9481;SDS011;4779;48.062;11.672;2023-07-16T08:04:31;2.15;;;1.50;;
9481;SDS011;4779;48.062;11.672;2023-07-16T08:06:58;1.80;;;1.60;;
9481;SDS011;4779;48.062;11.672;2023-07-16T08:09:25;2.30;;;1.95;;
9481;SDS011;4779;48.062;11.672;2023-07-16T08:11:52;1.58;;;1.48;;
9481;SDS011;4779;48.062;11.672;2023-07-16T08:14:19;2.55;;;1.92;;
9481;SDS011;4779;48.062;11.672;2023-07-16T08:16:46;2.40;;;2.08;;
9481;SDS011;4779;48.062;11.672;2023-07-16T08:19:13;1.95;;;1.75;;
9481;SDS011;4779;48.062;11.672;2023-07-16T08:21:43;2.10;;;1.83;;
9481;SDS011;4779;48.062;11.672;2023-07-16T08:24:10;1.67;;;1.58;;
9481;SDS011;4779;48.062;11.672;2023-07-16T08:26:37;1.40;;;1.30;;
9481;SDS011;4779;48.062;11.672;2023-07-16T08:29:04;2.70;;;1.40;;
9481;SDS011;4779;48.062;11.672;2023-07-16T08:31:31;1.73;;;1.63;;
9481;SDS011;4779;48.062;11.672;2023-07-16T08:33:57;1.92;;;1.63;;
9481;SDS011;4779;48.062;11.672;2023-07-16T08:36:25;1.40;;;1.30;;
9481;SDS011;4779;48.062;11.672;2023-07-16T08:38:53;2.72;;;1.98;;
9481;SDS011;4779;48.062;11.672;2023-07-16T08:41:20;1.60;;;1.50;;
9481;SDS011;4779;48.062;11.672;2023-07-16T08:43:47;1.23;;;1.13;;
9481;SDS011;4779;48.062;11.672;2023-07-16T08:46:14;1.52;;;1.42;;
9481;SDS011;4779;48.062;11.672;2023-07-16T08:48:42;1.83;;;1.65;;
9481;SDS011;4779;48.062;11.672;2023-07-16T08:51:10;1.70;;;1.60;;
9481;SDS011;4779;48.062;11.672;2023-07-16T08:53:41;1.40;;;1.30;;
9481;SDS011;4779;48.062;11.672;2023-07-16T08:56:10;1.50;;;1.40;;
9481;SDS011;4779;48.062;11.672;2023-07-16T08:58:36;1.85;;;1.17;;
9481;SDS011;4779;48.062;11.672;2023-07-16T09:01:04;2.10;;;1.38;;
9481;SDS011;4779;48.062;11.672;2023-07-16T09:03:32;1.30;;;1.00;;
9481;SDS011;4779;48.062;11.672;2023-07-16T09:05:59;1.55;;;1.20;;
9481;SDS011;4779;48.062;11.672;2023-07-16T09:08:26;1.20;;;1.10;;
9481;SDS011;4779;48.062;11.672;2023-07-16T09:10:53;1.30;;;1.20;;
9481;SDS011;4779;48.062;11.672;2023-07-16T09:13:23;1.95;;;1.27;;
9481;SDS011;4779;48.062;11.672;2023-07-16T09:15:52;1.15;;;1.05;;
9481;SDS011;4779;48.062;11.672;2023-07-16T09:18:20;1.63;;;1.15;;
9481;SDS011;4779;48.062;11.672;2023-07-16T09:20:47;2.22;;;1.20;;
9481;SDS011;4779;48.062;11.672;2023-07-16T09:23:16;1.45;;;1.15;;
9481;SDS011;4779;48.062;11.672;2023-07-16T09:25:43;1.38;;;1.25;;
9481;SDS011;4779;48.062;11.672;2023-07-16T09:28:11;1.50;;;1.40;;
9481;SDS011;4779;48.062;11.672;2023-07-16T09:30:44;1.10;;;1.10;;
9481;SDS011;4779;48.062;11.672;2023-07-16T09:33:12;1.33;;;1.23;;
9481;SDS011;4779;48.062;11.672;2023-07-16T09:35:40;1.40;;;1.30;;
9481;SDS011;4779;48.062;11.672;2023-07-16T09:38:07;1.35;;;1.00;;
9481;SDS011;4779;48.062;11.672;2023-07-16T09:40:35;0.90;;;0.90;;
9481;SDS011;4779;48.062;11.672;2023-07-16T09:43:02;1.45;;;1.00;;
9481;SDS011;4779;48.062;11.672;2023-07-16T09:45:29;1.77;;;1.02;;
9481;SDS011;4779;48.062;11.672;2023-07-16T09:47:58;2.05;;;1.02;;
9481;SDS011;4779;48.062;11.672;2023-07-16T09:50:24;1.20;;;1.10;;
9481;SDS011;4779;48.062;11.672;2023-07-16T09:52:54;1.52;;;1.08;;
9481;SDS011;4779;48.062;11.672;2023-07-16T09:55:22;0.90;;;0.90;;
9481;SDS011;4779;48.062;11.672;2023-07-16T09:57:51;0.90;;;0.90;;
9481;SDS011;4779;48.062;11.672;2023-07-16T10:00:21;1.30;;;1.20;;
9481;SDS011;4779;48.062;11.672;2023-07-16T10:02:50;1.45;;;1.17;;
9481;SDS011;4779;48.062;11.672;2023-07-16T10:05:23;1.30;;;1.20;;
9481;SDS011;4779;48.062;11.672;2023-07-16T10:07:51;1.27;;;1.00;;
9481;SDS011;4779;48.062;11.672;2023-07-16T10:10:19;1.30;;;1.20;;
9481;SDS011;4779;48.062;11.672;2023-07-16T10:12:56;1.33;;;1.25;;
9481;SDS011;4779;48.062;11.672;2023-07-16T10:15:25;2.25;;;1.15;;
9481;SDS011;4779;48.062;11.672;2023-07-16T10:17:52;1.05;;;1.05;;
9481;SDS011;4779;48.062;11.672;2023-07-16T10:20:29;1.48;;;1.38;;
9481;SDS011;4779;48.062;11.672;2023-07-16T10:22:56;1.55;;;1.45;;
9481;SDS011;4779;48.062;11.672;2023-07-16T10:25:24;1.60;;;1.20;;
9481;SDS011;4779;48.062;11.672;2023-07-16T10:27:52;1.25;;;1.17;;
9481;SDS011;4779;48.062;11.672;2023-07-16T10:30:20;2.00;;;1.40;;
9481;SDS011;4779;48.062;11.672;2023-07-16T10:32:49;1.30;;;1.20;;
9481;SDS011;4779;48.062;11.672;2023-07-16T10:35:18;1.30;;;1.27;;
9481;SDS011;4779;48.062;11.672;2023-07-16T10:37:46;1.02;;;1.02;;
9481;SDS011;4779;48.062;11.672;2023-07-16T10:40:13;1.35;;;1.20;;
9481;SDS011;4779;48.062;11.672;2023-07-16T10:42:41;1.60;;;1.50;;
9481;SDS011;4779;48.062;11.672;2023-07-16T10:45:09;1.27;;;1.17;;
9481;SDS011;4779;48.062;11.672;2023-07-16T10:47:37;1.40;;;1.30;;
9481;SDS011;4779;48.062;11.672;2023-07-16T10:50:06;1.52;;;1.33;;
9481;SDS011;4779;48.062;11.672;2023-07-16T10:52:35;1.30;;;1.20;;
9481;SDS011;4779;48.062;11.672;2023-07-16T10:55:04;1.60;;;1.50;;
9481;SDS011;4779;48.062;11.672;2023-07-16T10:57:32;1.48;;;1.30;;
9481;SDS011;4779;48.062;11.672;2023-07-16T10:59:59;1.65;;;1.55;;
9481;SDS011;4779;48.062;11.672;2023-07-16T11:02:26;1.48;;;1.38;;
9481;SDS011;4779;48.062;11.672;2023-07-16T11:04:53;1.25;;;1.23;;
9481;SDS011;4779;48.062;11.672;2023-07-16T11:07:22;1.42;;;1.33;;
9481;SDS011;4779;48.062;11.672;2023-07-16T11:09:50;2.65;;;1.70;;
9481;SDS011;4779;48.062;11.672;2023-07-16T11:12:20;1.50;;;1.40;;
9481;SDS011;4779;48.062;11.672;2023-07-16T11:14:49;1.48;;;1.38;;
9481;SDS011;4779;48.062;11.672;2023-07-16T11:17:17;1.60;;;1.50;;
9481;SDS011;4779;48.062;11.672;2023-07-16T11:19:44;1.42;;;1.33;;
9481;SDS011;4779;48.062;11.672;2023-07-16T11:22:13;1.60;;;1.30;;
9481;SDS011;4779;48.062;11.672;2023-07-16T11:24:41;1.85;;;1.55;;
9481;SDS011;4779;48.062;11.672;2023-07-16T11:27:15;1.52;;;1.42;;
9481;SDS011;4779;48.062;11.672;2023-07-16T11:29:47;1.80;;;1.70;;
9481;SDS011;4779;48.062;11.672;2023-07-16T11:32:25;1.70;;;1.60;;
9481;SDS011;4779;48.062;11.672;2023-07-16T11:34:53;1.77;;;1.67;;
9481;SDS011;4779;48.062;11.672;2023-07-16T11:37:20;2.20;;;1.60;;
9481;SDS011;4779;48.062;11.672;2023-07-16T11:39:47;1.60;;;1.50;;
9481;SDS011;4779;48.062;11.672;2023-07-16T11:42:14;2.25;;;1.75;;
9481;SDS011;4779;48.062;11.672;2023-07-16T11:44:49;1.98;;;1.80;;
9481;SDS011;4779;48.062;11.672;2023-07-16T11:47:17;1.83;;;1.73;;
9481;SDS011;4779;48.062;11.672;2023-07-16T11:49:44;1.88;;;1.70;;
9481;SDS011;4779;48.062;11.672;2023-07-16T11:52:10;1.92;;;1.80;;
9481;SDS011;4779;48.062;11.672;2023-07-16T11:54:37;2.25;;;1.73;;
9481;SDS011;4779;48.062;11.672;2023-07-16T11:57:05;4.07;;;1.98;;
9481;SDS011;4779;48.062;11.672;2023-07-16T11:59:32;2.25;;;2.10;;
9481;SDS011;4779;48.062;11.672;2023-07-16T12:02:00;2.58;;;2.00;;
9481;SDS011;4779;48.062;11.672;2023-07-16T12:04:28;1.90;;;1.80;;
9481;SDS011;4779;48.062;11.672;2023-07-16T12:06:55;2.28;;;2.10;;
9481;SDS011;4779;48.062;11.672;2023-07-16T12:09:22;2.50;;;2.30;;
9481;SDS011;4779;48.062;11.672;2023-07-16T12:11:48;1.90;;;1.80;;
9481;SDS011;4779;48.062;11.672;2023-07-16T12:14:15;2.00;;;1.90;;
9481;SDS011;4779;48.062;11.672;2023-07-16T12:16:42;2.28;;;1.80;;
9481;SDS011;4779;48.062;11.672;2023-07-16T12:19:10;2.30;;;2.20;;
9481;SDS011;4779;48.062;11.672;2023-07-16T12:21:37;2.00;;;1.80;;
9481;SDS011;4779;48.062;11.672;2023-07-16T12:24:04;2.30;;;1.85;;
9481;SDS011;4779;48.062;11.672;2023-07-16T12:26:31;2.25;;;2.03;;
9481;SDS011;4779;48.062;11.672;2023-07-16T12:28:59;2.47;;;2.28;;
9481;SDS011;4779;48.062;11.672;2023-07-16T12:31:28;2.25;;;1.88;;
9481;SDS011;4779;48.062;11.672;2023-07-16T12:33:56;2.60;;;1.95;;
9481;SDS011;4779;48.062;11.672;2023-07-16T12:36:25;2.33;;;2.13;;
9481;SDS011;4779;48.062;11.672;2023-07-16T12:38:52;2.28;;;2.10;;
9481;SDS011;4779;48.062;11.672;2023-07-16T12:41:19;2.35;;;1.80;;
9481;SDS011;4779;48.062;11.672;2023-07-16T12:43:45;2.47;;;2.10;;
9481;SDS011;4779;48.062;11.672;2023-07-16T12:46:13;2.10;;;2.00;;
9481;SDS011;4779;48.062;11.672;2023-07-16T12:48:40;2.05;;;1.95;;
9481;SDS011;4779;48.062;11.672;2023-07-16T12:51:07;2.38;;;2.10;;
9481;SDS011;4779;48.062;11.672;2023-07-16T12:53:35;2.10;;;2.00;;
9481;SDS011;4779;48.062;11.672;2023-07-16T12:58:50;2.30;;;2.05;;
9481;SDS011;4779;48.062;11.672;2023-07-16T13:01:17;2.17;;;1.98;;
9481;SDS011;4779;48.062;11.672;2023-07-16T13:03:43;2.50;;;2.30;;
9481;SDS011;4779;48.062;11.672;2023-07-16T13:06:10;2.15;;;2.05;;
9481;SDS011;4779;48.062;11.672;2023-07-16T13:08:39;2.20;;;2.00;;
9481;SDS011;4779;48.062;11.672;2023-07-16T13:11:05;3.38;;;2.42;;
9481;SDS011;4779;48.062;11.672;2023-07-16T13:13:32;2.40;;;2.30;;
9481;SDS011;4779;48.062;11.672;2023-07-16T13:16:00;2.53;;;2.30;;
9481;SDS011;4779;48.062;11.672;2023-07-16T13:18:27;2.42;;;2.28;;
9481;SDS011;4779;48.062;11.672;2023-07-16T13:20:54;2.13;;;2.03;;
9481;SDS011;4779;48.062;11.672;2023-07-16T13:23:21;2.60;;;2.10;;
9481;SDS011;4779;48.062;11.672;2023-07-16T13:25:49;2.67;;;2.47;;
9481;SDS011;4779;48.062;11.672;2023-07-16T13:28:17;3.92;;;2.30;;
9481;SDS011;4779;48.062;11.672;2023-07-16T13:30:45;2.15;;;1.95;;
9481;SDS011;4779;48.062;11.672;2023-07-16T13:33:12;2.60;;;2.40;;
9481;SDS011;4779;48.062;11.672;2023-07-16T13:35:39;2.50;;;2.28;;
9481;SDS011;4779;48.062;11.672;2023-07-16T13:38:05;2.28;;;2.08;;
9481;SDS011;4779;48.062;11.672;2023-07-16T13:40:32;2.17;;;2.05;;
9481;SDS011;4779;48.062;11.672;2023-07-16T13:43:08;2.25;;;2.03;;
9481;SDS011;4779;48.062;11.672;2023-07-16T13:45:35;2.45;;;1.98;;
9481;SDS011;4779;48.062;11.672;2023-07-16T13:48:02;2.30;;;2.15;;
9481;SDS011;4779;48.062;11.672;2023-07-16T13:50:29;2.15;;;2.05;;
9481;SDS011;4779;48.062;11.672;2023-07-16T13:52:56;3.90;;;2.40;;
9481;SDS011;4779;48.062;11.672;2023-07-16T13:55:26;2.47;;;2.28;;
9481;SDS011;4779;48.062;11.672;2023-07-16T13:57:53;2.97;;;2.13;;
9481;SDS011;4779;48.062;11.672;2023-07-16T14:00:22;2.30;;;2.00;;
9481;SDS011;4779;48.062;11.672;2023-07-16T14:02:49;1.98;;;1.88;;
9481;SDS011;4779;48.062;11.672;2023-07-16T14:05:15;2.55;;;2.35;;
9481;SDS011;4779;48.062;11.672;2023-07-16T14:07:42;2.30;;;2.05;;
9481;SDS011;4779;48.062;11.672;2023-07-16T14:10:09;2.53;;;2.17;;
9481;SDS011;4779;48.062;11.672;2023-07-16T14:12:36;3.80;;;2.20;;
9481;SDS011;4779;48.062;11.672;2023-07-16T14:15:03;2.28;;;2.10;;
9481;SDS011;4779;48.062;11.672;2023-07-16T14:17:32;2.88;;;2.08;;
9481;SDS011;4779;48.062;11.672;2023-07-16T14:19:59;2.05;;;1.90;;
9481;SDS011;4779;48.062;11.672;2023-07-16T14:22:26;2.08;;;1.98;;
9481;SDS011;4779;48.062;11.672;2023-07-16T14:24:53;2.60;;;2.10;;
9481;SDS011;4779;48.062;11.672;2023-07-16T14:27:23;2.53;;;2.33;;
9481;SDS011;4779;48.062;11.672;2023-07-16T14:29:51;2.20;;;2.00;;
9481;SDS011;4779;48.062;11.672;2023-07-16T14:32:18;2.33;;;2.13;;
9481;SDS011;4779;48.062;11.672;2023-07-16T14:34:46;2.20;;;2.00;;
9481;SDS011;4779;48.062;11.672;2023-07-16T14:37:13;2.80;;;2.20;;
9481;SDS011;4779;48.062;11.672;2023-07-16T14:39:40;2.30;;;2.10;;
9481;SDS011;4779;48.062;11.672;2023-07-16T14:42:07;2.50;;;2.20;;
9481;SDS011;4779;48.062;11.672;2023-07-16T14:44:34;3.45;;;2.72;;
9481;SDS011;4779;48.062;11.672;2023-07-16T14:47:01;2.53;;;2.33;;
9481;SDS011;4779;48.062;11.672;2023-07-16T14:49:29;2.58;;;2.38;;
9481;SDS011;4779;48.062;11.672;2023-07-16T14:51:57;3.10;;;2.35;;
9481;SDS011;4779;48.062;11.672;2023-07-16T14:54:24;3.05;;;2.50;;
9481;SDS011;4779;48.062;11.672;2023-07-16T14:56:51;4.13;;;2.60;;
9481;SDS011;4779;48.062;11.672;2023-07-16T14:59:18;2.42;;;2.08;;
9481;SDS011;4779;48.062;11.672;2023-07-16T15:01:45;2.95;;;2.30;;
9481;SDS011;4779;48.062;11.672;2023-07-16T15:04:11;3.33;;;2.35;;
9481;SDS011;4779;48.062;11.672;2023-07-16T15:06:38;2.45;;;2.25;;
9481;SDS011;4779;48.062;11.672;2023-07-16T15:09:06;2.00;;;1.90;;